sensor_id;sensor_type;location;lat;lon;timestamp;P1;durP1;ratioP1;P2;durP2;ratioP2
14961;SDS011;56489;53.166;10.864;2022-10-16T00:01:20;7.05;;;5.90;;
14961;SDS011;56489;53.166;10.864;2022-10-16T00:03:49;8.32;;;6.15;;
14961;SDS011;56489;53.166;10.864;2022-10-16T00:06:17;7.57;;;6.00;;
14961;SDS011;56489;53.166;10.864;2022-10-16T00:08:47;7.38;;;6.50;;
14961;SDS011;56489;53.166;10.864;2022-10-16T00:11:16;7.18;;;5.70;;
14961;SDS011;56489;53.166;10.864;2022-10-16T00:13:45;6.32;;;5.70;;
14961;SDS011;56489;53.166;10.864;2022-10-16T00:16:13;5.95;;;5.35;;
14961;SDS011;56489;53.166;10.864;2022-10-16T00:18:40;5.00;;;4.47;;
14961;SDS011;56489;53.166;10.864;2022-10-16T00:21:09;5.32;;;4.82;;
14961;SDS011;56489;53.166;10.864;2022-10-16T00:23:39;4.72;;;4.28;;
14961;SDS011;56489;53.166;10.864;2022-10-16T00:26:08;5.57;;;5.07;;
14961;SDS011;56489;53.166;10.864;2022-10-16T00:28:36;5.65;;;4.50;;
14961;SDS011;56489;53.166;10.864;2022-10-16T00:31:08;5.63;;;5.13;;
14961;SDS011;56489;53.166;10.864;2022-10-16T00:33:37;5.68;;;5.15;;
14961;SDS011;56489;53.166;10.864;2022-10-16T00:36:06;4.93;;;4.43;;
14961;SDS011;56489;53.166;10.864;2022-10-16T00:38:35;5.13;;;4.63;;
14961;SDS011;56489;53.166;10.864;2022-10-16T00:41:04;4.32;;;3.92;;
14961;SDS011;56489;53.166;10.864;2022-10-16T00:43:34;4.25;;;3.85;;
14961;SDS011;56489;53.166;10.864;2022-10-16T00:46:02;5.47;;;4.85;;
14961;SDS011;56489;53.166;10.864;2022-10-16T00:48:31;4.20;;;3.90;;
14961;SDS011;56489;53.166;10.864;2022-10-16T00:50:58;4.20;;;3.78;;
14961;SDS011;56489;53.166;10.864;2022-10-16T00:53:26;4.28;;;3.88;;
14961;SDS011;56489;53.166;10.864;2022-10-16T00:55:53;4.72;;;4.30;;
14961;SDS011;56489;53.166;10.864;2022-10-16T00:58:20;4.40;;;3.88;;
14961;SDS011;56489;53.166;10.864;2022-10-16T01:00:47;5.72;;;4.50;;
14961;SDS011;56489;53.166;10.864;2022-10-16T01:03:25;4.53;;;4.13;;
14961;SDS011;56489;53.166;10.864;2022-10-16T01:06:46;5.30;;;4.80;;
14961;SDS011;56489;53.166;10.864;2022-10-16T01:11:41;5.00;;;4.50;;
14961;SDS011;56489;53.166;10.864;2022-10-16T01:17:01;3.90;;;3.60;;
14961;SDS011;56489;53.166;10.864;2022-10-16T01:19:50;3.88;;;3.53;;
14961;SDS011;56489;53.166;10.864;2022-10-16T01:22:33;4.40;;;4.07;;
14961;SDS011;56489;53.166;10.864;2022-10-16T01:25:12;3.80;;;3.50;;
14961;SDS011;56489;53.166;10.864;2022-10-16T01:27:49;3.55;;;3.25;;
14961;SDS011;56489;53.166;10.864;2022-10-16T01:30:23;3.60;;;3.30;;
14961;SDS011;56489;53.166;10.864;2022-10-16T01:32:58;4.50;;;4.10;;
14961;SDS011;56489;53.166;10.864;2022-10-16T01:35:33;4.95;;;3.58;;
14961;SDS011;56489;53.166;10.864;2022-10-16T01:38:10;6.43;;;4.25;;
14961;SDS011;56489;53.166;10.864;2022-10-16T01:40:46;3.85;;;3.55;;
14961;SDS011;56489;53.166;10.864;2022-10-16T01:43:19;4.15;;;3.50;;
14961;SDS011;56489;53.166;10.864;2022-10-16T01:45:50;3.75;;;3.45;;
14961;SDS011;56489;53.166;10.864;2022-10-16T01:48:18;3.60;;;3.30;;
14961;SDS011;56489;53.166;10.864;2022-10-16T01:50:58;3.80;;;3.45;;
14961;SDS011;56489;53.166;10.864;2022-10-16T01:53:29;3.42;;;3.10;;
14961;SDS011;56489;53.166;10.864;2022-10-16T01:55:57;3.17;;;2.58;;
14961;SDS011;56489;53.166;10.864;2022-10-16T01:58:26;3.83;;;2.67;;
14961;SDS011;56489;53.166;10.864;2022-10-16T02:01:00;2.88;;;2.67;;
14961;SDS011;56489;53.166;10.864;2022-10-16T02:03:29;2.28;;;2.08;;
14961;SDS011;56489;53.166;10.864;2022-10-16T02:05:56;2.88;;;2.67;;
14961;SDS011;56489;53.166;10.864;2022-10-16T02:08:25;2.47;;;2.28;;
14961;SDS011;56489;53.166;10.864;2022-10-16T02:10:54;2.40;;;2.20;;
14961;SDS011;56489;53.166;10.864;2022-10-16T02:13:24;2.58;;;2.38;;
14961;SDS011;56489;53.166;10.864;2022-10-16T02:15:58;2.47;;;2.28;;
14961;SDS011;56489;53.166;10.864;2022-10-16T02:18:26;2.28;;;2.08;;
14961;SDS011;56489;53.166;10.864;2022-10-16T02:21:07;2.10;;;2.00;;
14961;SDS011;56489;53.166;10.864;2022-10-16T02:23:53;2.42;;;2.22;;
14961;SDS011;56489;53.166;10.864;2022-10-16T02:29:17;2.15;;;1.95;;
14961;SDS011;56489;53.166;10.864;2022-10-16T02:31:49;2.00;;;1.90;;
14961;SDS011;56489;53.166;10.864;2022-10-16T02:34:20;2.72;;;1.80;;
14961;SDS011;56489;53.166;10.864;2022-10-16T02:36:50;2.65;;;2.20;;
14961;SDS011;56489;53.166;10.864;2022-10-16T02:39:18;2.58;;;2.38;;
14961;SDS011;56489;53.166;10.864;2022-10-16T02:41:46;3.45;;;2.50;;
14961;SDS011;56489;53.166;10.864;2022-10-16T02:44:14;2.25;;;2.05;;
14961;SDS011;56489;53.166;10.864;2022-10-16T02:46:41;2.30;;;2.10;;
14961;SDS011;56489;53.166;10.864;2022-10-16T02:49:07;2.00;;;1.80;;
14961;SDS011;56489;53.166;10.864;2022-10-16T02:51:34;4.45;;;2.35;;
14961;SDS011;56489;53.166;10.864;2022-10-16T02:54:02;2.60;;;2.03;;
14961;SDS011;56489;53.166;10.864;2022-10-16T02:56:29;2.25;;;2.05;;
14961;SDS011;56489;53.166;10.864;2022-10-16T02:58:57;4.53;;;2.20;;
14961;SDS011;56489;53.166;10.864;2022-10-16T03:01:24;2.60;;;2.30;;
14961;SDS011;56489;53.166;10.864;2022-10-16T03:03:51;2.85;;;2.60;;
14961;SDS011;56489;53.166;10.864;2022-10-16T03:06:18;2.75;;;2.50;;
14961;SDS011;56489;53.166;10.864;2022-10-16T03:08:45;2.60;;;2.28;;
14961;SDS011;56489;53.166;10.864;2022-10-16T03:11:11;2.35;;;2.15;;
14961;SDS011;56489;53.166;10.864;2022-10-16T03:13:38;2.30;;;2.10;;
14961;SDS011;56489;53.166;10.864;2022-10-16T03:16:05;2.65;;;2.00;;
14961;SDS011;56489;53.166;10.864;2022-10-16T03:18:32;2.40;;;2.20;;
14961;SDS011;56489;53.166;10.864;2022-10-16T03:20:58;2.88;;;2.25;;
14961;SDS011;56489;53.166;10.864;2022-10-16T03:23:25;3.17;;;2.20;;
14961;SDS011;56489;53.166;10.864;2022-10-16T03:25:52;2.30;;;2.10;;
14961;SDS011;56489;53.166;10.864;2022-10-16T03:28:20;3.22;;;2.20;;
14961;SDS011;56489;53.166;10.864;2022-10-16T03:30:47;2.17;;;2.00;;
14961;SDS011;56489;53.166;10.864;2022-10-16T03:33:13;4.70;;;2.38;;
14961;SDS011;56489;53.166;10.864;2022-10-16T03:35:40;3.03;;;2.35;;
14961;SDS011;56489;53.166;10.864;2022-10-16T03:38:07;2.65;;;1.88;;
14961;SDS011;56489;53.166;10.864;2022-10-16T03:40:34;4.50;;;2.38;;
14961;SDS011;56489;53.166;10.864;2022-10-16T03:43:01;2.25;;;1.95;;
14961;SDS011;56489;53.166;10.864;2022-10-16T03:45:28;2.47;;;1.95;;
14961;SDS011;56489;53.166;10.864;2022-10-16T03:47:55;3.33;;;2.13;;
14961;SDS011;56489;53.166;10.864;2022-10-16T03:50:21;3.35;;;2.05;;
14961;SDS011;56489;53.166;10.864;2022-10-16T03:52:52;2.45;;;2.25;;
14961;SDS011;56489;53.166;10.864;2022-10-16T03:55:19;2.58;;;2.38;;
14961;SDS011;56489;53.166;10.864;2022-10-16T03:57:45;2.58;;;1.85;;
14961;SDS011;56489;53.166;10.864;2022-10-16T04:00:12;3.05;;;2.60;;
14961;SDS011;56489;53.166;10.864;2022-10-16T04:02:39;2.33;;;1.90;;
14961;SDS011;56489;53.166;10.864;2022-10-16T04:05:06;2.78;;;2.00;;
14961;SDS011;56489;53.166;10.864;2022-10-16T04:07:34;2.15;;;1.90;;
14961;SDS011;56489;53.166;10.864;2022-10-16T04:10:01;3.08;;;2.05;;
14961;SDS011;56489;53.166;10.864;2022-10-16T04:12:28;3.13;;;2.00;;
14961;SDS011;56489;53.166;10.864;2022-10-16T04:14:55;2.40;;;2.10;;
14961;SDS011;56489;53.166;10.864;2022-10-16T04:17:22;3.15;;;1.85;;
14961;SDS011;56489;53.166;10.864;2022-10-16T04:19:49;2.42;;;2.05;;
14961;SDS011;56489;53.166;10.864;2022-10-16T04:22:16;2.22;;;2.03;;
14961;SDS011;56489;53.166;10.864;2022-10-16T04:24:45;3.83;;;2.35;;
14961;SDS011;56489;53.166;10.864;2022-10-16T04:27:12;3.22;;;2.00;;
14961;SDS011;56489;53.166;10.864;2022-10-16T04:29:39;4.80;;;2.08;;
14961;SDS011;56489;53.166;10.864;2022-10-16T04:32:07;1.92;;;1.80;;
14961;SDS011;56489;53.166;10.864;2022-10-16T04:34:34;2.20;;;1.98;;
14961;SDS011;56489;53.166;10.864;2022-10-16T04:37:01;2.38;;;2.08;;
14961;SDS011;56489;53.166;10.864;2022-10-16T04:39:28;2.72;;;2.40;;
14961;SDS011;56489;53.166;10.864;2022-10-16T04:41:55;2.80;;;2.33;;
14961;SDS011;56489;53.166;10.864;2022-10-16T04:44:22;2.67;;;2.47;;
14961;SDS011;56489;53.166;10.864;2022-10-16T04:46:52;2.80;;;2.05;;
14961;SDS011;56489;53.166;10.864;2022-10-16T04:49:19;3.15;;;2.30;;
14961;SDS011;56489;53.166;10.864;2022-10-16T04:51:45;6.07;;;2.30;;
14961;SDS011;56489;53.166;10.864;2022-10-16T04:54:12;2.85;;;1.95;;
14961;SDS011;56489;53.166;10.864;2022-10-16T04:56:39;4.97;;;2.42;;
14961;SDS011;56489;53.166;10.864;2022-10-16T04:59:14;3.28;;;2.22;;
14961;SDS011;56489;53.166;10.864;2022-10-16T05:01:41;2.78;;;2.58;;
14961;SDS011;56489;53.166;10.864;2022-10-16T05:04:08;3.45;;;2.45;;
14961;SDS011;56489;53.166;10.864;2022-10-16T05:06:36;2.22;;;2.03;;
14961;SDS011;56489;53.166;10.864;2022-10-16T05:09:05;2.70;;;2.50;;
14961;SDS011;56489;53.166;10.864;2022-10-16T05:11:31;3.00;;;2.40;;
14961;SDS011;56489;53.166;10.864;2022-10-16T05:13:59;2.50;;;2.28;;
14961;SDS011;56489;53.166;10.864;2022-10-16T05:16:26;2.45;;;2.03;;
14961;SDS011;56489;53.166;10.864;2022-10-16T05:18:53;2.50;;;2.30;;
14961;SDS011;56489;53.166;10.864;2022-10-16T05:21:35;3.13;;;2.35;;
14961;SDS011;56489;53.166;10.864;2022-10-16T05:24:02;3.15;;;1.95;;
14961;SDS011;56489;53.166;10.864;2022-10-16T05:26:28;6.60;;;2.60;;
14961;SDS011;56489;53.166;10.864;2022-10-16T05:28:55;4.10;;;2.60;;
14961;SDS011;56489;53.166;10.864;2022-10-16T05:31:22;3.10;;;2.67;;
14961;SDS011;56489;53.166;10.864;2022-10-16T05:33:49;2.50;;;2.30;;
14961;SDS011;56489;53.166;10.864;2022-10-16T05:36:16;3.05;;;2.20;;
14961;SDS011;56489;53.166;10.864;2022-10-16T05:38:44;3.25;;;2.30;;
14961;SDS011;56489;53.166;10.864;2022-10-16T05:41:11;2.38;;;2.17;;
14961;SDS011;56489;53.166;10.864;2022-10-16T05:43:38;2.60;;;2.38;;
14961;SDS011;56489;53.166;10.864;2022-10-16T05:46:05;3.85;;;2.20;;
14961;SDS011;56489;53.166;10.864;2022-10-16T05:48:32;2.70;;;2.25;;
14961;SDS011;56489;53.166;10.864;2022-10-16T05:51:03;2.90;;;2.47;;
14961;SDS011;56489;53.166;10.864;2022-10-16T05:53:35;2.80;;;2.00;;
14961;SDS011;56489;53.166;10.864;2022-10-16T05:56:03;3.67;;;2.40;;
14961;SDS011;56489;53.166;10.864;2022-10-16T05:58:32;2.65;;;2.45;;
14961;SDS011;56489;53.166;10.864;2022-10-16T06:01:02;2.70;;;2.20;;
14961;SDS011;56489;53.166;10.864;2022-10-16T06:03:31;2.58;;;2.30;;
14961;SDS011;56489;53.166;10.864;2022-10-16T06:05:58;3.65;;;2.03;;
14961;SDS011;56489;53.166;10.864;2022-10-16T06:08:25;2.45;;;2.25;;
14961;SDS011;56489;53.166;10.864;2022-10-16T06:11:02;2.28;;;2.10;;
14961;SDS011;56489;53.166;10.864;2022-10-16T06:13:34;3.65;;;2.53;;
14961;SDS011;56489;53.166;10.864;2022-10-16T06:16:01;3.55;;;2.40;;
14961;SDS011;56489;53.166;10.864;2022-10-16T06:18:28;2.30;;;2.10;;
14961;SDS011;56489;53.166;10.864;2022-10-16T06:20:56;2.85;;;2.28;;
14961;SDS011;56489;53.166;10.864;2022-10-16T06:23:23;3.75;;;2.20;;
14961;SDS011;56489;53.166;10.864;2022-10-16T06:25:51;2.65;;;2.45;;
14961;SDS011;56489;53.166;10.864;2022-10-16T06:28:18;3.90;;;2.40;;
14961;SDS011;56489;53.166;10.864;2022-10-16T06:30:44;2.83;;;2.60;;
14961;SDS011;56489;53.166;10.864;2022-10-16T06:33:12;2.75;;;2.22;;
14961;SDS011;56489;53.166;10.864;2022-10-16T06:35:38;2.63;;;2.42;;
14961;SDS011;56489;53.166;10.864;2022-10-16T06:38:05;2.92;;;2.72;;
14961;SDS011;56489;53.166;10.864;2022-10-16T06:40:32;6.15;;;3.00;;
14961;SDS011;56489;53.166;10.864;2022-10-16T06:42:59;4.43;;;3.33;;
14961;SDS011;56489;53.166;10.864;2022-10-16T06:45:25;3.13;;;2.92;;
14961;SDS011;56489;53.166;10.864;2022-10-16T06:47:54;4.40;;;3.22;;
14961;SDS011;56489;53.166;10.864;2022-10-16T06:50:21;3.83;;;3.17;;
14961;SDS011;56489;53.166;10.864;2022-10-16T06:52:48;3.78;;;2.72;;
14961;SDS011;56489;53.166;10.864;2022-10-16T06:55:14;3.67;;;3.22;;
14961;SDS011;56489;53.166;10.864;2022-10-16T06:57:43;3.30;;;3.00;;
14961;SDS011;56489;53.166;10.864;2022-10-16T07:00:13;5.90;;;3.20;;
14961;SDS011;56489;53.166;10.864;2022-10-16T07:02:41;3.20;;;2.90;;
14961;SDS011;56489;53.166;10.864;2022-10-16T07:05:07;3.20;;;2.80;;
14961;SDS011;56489;53.166;10.864;2022-10-16T07:07:35;4.80;;;3.03;;
14961;SDS011;56489;53.166;10.864;2022-10-16T07:10:01;3.33;;;3.10;;
14961;SDS011;56489;53.166;10.864;2022-10-16T07:12:28;4.85;;;3.42;;
14961;SDS011;56489;53.166;10.864;2022-10-16T07:14:55;4.28;;;2.75;;
14961;SDS011;56489;53.166;10.864;2022-10-16T07:17:22;2.90;;;2.55;;
14961;SDS011;56489;53.166;10.864;2022-10-16T07:19:49;3.95;;;2.90;;
14961;SDS011;56489;53.166;10.864;2022-10-16T07:22:19;3.40;;;3.08;;
14961;SDS011;56489;53.166;10.864;2022-10-16T07:24:46;4.90;;;3.13;;
14961;SDS011;56489;53.166;10.864;2022-10-16T07:27:17;5.38;;;2.97;;
14961;SDS011;56489;53.166;10.864;2022-10-16T07:29:44;4.45;;;3.33;;
14961;SDS011;56489;53.166;10.864;2022-10-16T07:32:11;3.05;;;2.70;;
14961;SDS011;56489;53.166;10.864;2022-10-16T07:34:38;4.30;;;3.03;;
14961;SDS011;56489;53.166;10.864;2022-10-16T07:37:05;3.25;;;2.95;;
14961;SDS011;56489;53.166;10.864;2022-10-16T07:39:32;4.57;;;3.50;;
14961;SDS011;56489;53.166;10.864;2022-10-16T07:41:59;3.35;;;2.75;;
14961;SDS011;56489;53.166;10.864;2022-10-16T07:44:25;4.13;;;3.08;;
14961;SDS011;56489;53.166;10.864;2022-10-16T07:46:52;2.53;;;2.35;;
14961;SDS011;56489;53.166;10.864;2022-10-16T07:49:19;4.20;;;3.22;;
14961;SDS011;56489;53.166;10.864;2022-10-16T07:51:46;3.28;;;3.03;;
14961;SDS011;56489;53.166;10.864;2022-10-16T07:54:13;3.28;;;2.80;;
14961;SDS011;56489;53.166;10.864;2022-10-16T07:56:39;4.82;;;2.97;;
14961;SDS011;56489;53.166;10.864;2022-10-16T07:59:09;3.38;;;3.03;;
14961;SDS011;56489;53.166;10.864;2022-10-16T08:01:35;4.40;;;2.60;;
14961;SDS011;56489;53.166;10.864;2022-10-16T08:04:03;2.97;;;2.67;;
14961;SDS011;56489;53.166;10.864;2022-10-16T08:06:34;4.72;;;3.35;;
14961;SDS011;56489;53.166;10.864;2022-10-16T08:09:03;2.63;;;2.40;;
14961;SDS011;56489;53.166;10.864;2022-10-16T08:11:30;4.30;;;2.85;;
14961;SDS011;56489;53.166;10.864;2022-10-16T08:13:56;2.85;;;2.55;;
14961;SDS011;56489;53.166;10.864;2022-10-16T08:16:23;7.38;;;2.53;;
14961;SDS011;56489;53.166;10.864;2022-10-16T08:18:50;2.70;;;2.50;;
14961;SDS011;56489;53.166;10.864;2022-10-16T08:21:18;5.70;;;2.80;;
14961;SDS011;56489;53.166;10.864;2022-10-16T08:23:49;3.05;;;2.78;;
14961;SDS011;56489;53.166;10.864;2022-10-16T08:26:23;2.83;;;2.47;;
14961;SDS011;56489;53.166;10.864;2022-10-16T08:28:51;2.25;;;2.05;;
14961;SDS011;56489;53.166;10.864;2022-10-16T08:31:20;3.90;;;2.42;;
14961;SDS011;56489;53.166;10.864;2022-10-16T08:33:47;2.83;;;2.60;;
14961;SDS011;56489;53.166;10.864;2022-10-16T08:36:15;2.65;;;2.17;;
14961;SDS011;56489;53.166;10.864;2022-10-16T08:38:42;4.53;;;2.30;;
14961;SDS011;56489;53.166;10.864;2022-10-16T08:41:14;2.67;;;2.47;;
14961;SDS011;56489;53.166;10.864;2022-10-16T08:49:57;2.60;;;1.83;;
14961;SDS011;56489;53.166;10.864;2022-10-16T08:52:35;3.20;;;2.00;;
14961;SDS011;56489;53.166;10.864;2022-10-16T08:55:10;1.90;;;1.50;;
14961;SDS011;56489;53.166;10.864;2022-10-16T08:58:01;3.08;;;1.90;;
14961;SDS011;56489;53.166;10.864;2022-10-16T09:00:37;3.53;;;1.58;;
14961;SDS011;56489;53.166;10.864;2022-10-16T09:03:09;1.90;;;1.70;;
14961;SDS011;56489;53.166;10.864;2022-10-16T09:06:43;1.95;;;1.60;;
14961;SDS011;56489;53.166;10.864;2022-10-16T09:11:34;4.00;;;1.60;;
14961;SDS011;56489;53.166;10.864;2022-10-16T09:17:17;2.15;;;1.73;;
14961;SDS011;56489;53.166;10.864;2022-10-16T09:19:51;2.30;;;1.50;;
14961;SDS011;56489;53.166;10.864;2022-10-16T09:22:27;1.65;;;1.42;;
14961;SDS011;56489;53.166;10.864;2022-10-16T09:24:57;2.00;;;1.50;;
14961;SDS011;56489;53.166;10.864;2022-10-16T09:27:26;2.38;;;1.23;;
14961;SDS011;56489;53.166;10.864;2022-10-16T09:29:53;2.67;;;1.30;;
14961;SDS011;56489;53.166;10.864;2022-10-16T09:32:25;1.67;;;1.17;;
14961;SDS011;56489;53.166;10.864;2022-10-16T09:34:54;2.75;;;1.33;;
14961;SDS011;56489;53.166;10.864;2022-10-16T09:37:23;1.63;;;1.48;;
14961;SDS011;56489;53.166;10.864;2022-10-16T09:39:53;2.45;;;1.10;;
14961;SDS011;56489;53.166;10.864;2022-10-16T09:42:26;1.38;;;1.02;;
14961;SDS011;56489;53.166;10.864;2022-10-16T09:44:57;2.58;;;1.40;;
14961;SDS011;56489;53.166;10.864;2022-10-16T09:47:28;2.42;;;1.48;;
14961;SDS011;56489;53.166;10.864;2022-10-16T09:50:00;1.20;;;1.10;;
14961;SDS011;56489;53.166;10.864;2022-10-16T09:52:32;1.27;;;1.13;;
14961;SDS011;56489;53.166;10.864;2022-10-16T09:55:12;1.60;;;1.02;;
14961;SDS011;56489;53.166;10.864;2022-10-16T09:57:50;1.80;;;1.05;;
14961;SDS011;56489;53.166;10.864;2022-10-16T10:00:18;1.42;;;1.13;;
14961;SDS011;56489;53.166;10.864;2022-10-16T10:02:47;1.27;;;0.90;;
14961;SDS011;56489;53.166;10.864;2022-10-16T10:05:18;1.50;;;0.93;;
14961;SDS011;56489;53.166;10.864;2022-10-16T10:08:00;1.95;;;1.00;;
14961;SDS011;56489;53.166;10.864;2022-10-16T10:10:40;1.30;;;1.20;;
14961;SDS011;56489;53.166;10.864;2022-10-16T10:13:21;0.95;;;0.95;;
14961;SDS011;56489;53.166;10.864;2022-10-16T10:15:50;1.42;;;0.80;;
14961;SDS011;56489;53.166;10.864;2022-10-16T10:18:18;1.55;;;0.98;;
14961;SDS011;56489;53.166;10.864;2022-10-16T10:20:56;1.80;;;1.20;;
14961;SDS011;56489;53.166;10.864;2022-10-16T10:23:28;1.02;;;0.93;;
14961;SDS011;56489;53.166;10.864;2022-10-16T10:26:07;0.90;;;0.90;;
14961;SDS011;56489;53.166;10.864;2022-10-16T10:31:27;2.10;;;1.00;;
14961;SDS011;56489;53.166;10.864;2022-10-16T10:34:49;0.75;;;0.75;;
14961;SDS011;56489;53.166;10.864;2022-10-16T10:37:22;1.10;;;0.75;;
14961;SDS011;56489;53.166;10.864;2022-10-16T10:39:55;1.02;;;0.90;;
14961;SDS011;56489;53.166;10.864;2022-10-16T10:45:11;1.45;;;0.80;;
14961;SDS011;56489;53.166;10.864;2022-10-16T10:50:43;1.50;;;0.98;;
14961;SDS011;56489;53.166;10.864;2022-10-16T10:56:16;1.92;;;1.38;;
14961;SDS011;56489;53.166;10.864;2022-10-16T11:07:05;1.77;;;0.90;;
14961;SDS011;56489;53.166;10.864;2022-10-16T11:09:56;1.92;;;1.10;;
14961;SDS011;56489;53.166;10.864;2022-10-16T11:12:39;4.55;;;1.15;;
14961;SDS011;56489;53.166;10.864;2022-10-16T11:15:12;2.65;;;1.00;;
14961;SDS011;56489;53.166;10.864;2022-10-16T11:17:52;1.13;;;0.90;;
14961;SDS011;56489;53.166;10.864;2022-10-16T11:20:42;1.30;;;0.90;;
14961;SDS011;56489;53.166;10.864;2022-10-16T11:23:15;2.05;;;1.08;;
14961;SDS011;56489;53.166;10.864;2022-10-16T11:25:47;2.55;;;0.90;;
14961;SDS011;56489;53.166;10.864;2022-10-16T11:28:29;1.58;;;1.10;;
14961;SDS011;56489;53.166;10.864;2022-10-16T11:31:15;1.60;;;0.98;;
14961;SDS011;56489;53.166;10.864;2022-10-16T11:33:44;0.98;;;0.80;;
14961;SDS011;56489;53.166;10.864;2022-10-16T11:36:16;1.20;;;0.90;;
14961;SDS011;56489;53.166;10.864;2022-10-16T11:41:28;1.83;;;0.88;;
14961;SDS011;56489;53.166;10.864;2022-10-16T11:44:18;1.80;;;1.13;;
14961;SDS011;56489;53.166;10.864;2022-10-16T11:46:59;2.28;;;1.00;;
14961;SDS011;56489;53.166;10.864;2022-10-16T11:55:53;1.55;;;1.00;;
14961;SDS011;56489;53.166;10.864;2022-10-16T12:01:05;1.90;;;0.90;;
14961;SDS011;56489;53.166;10.864;2022-10-16T12:03:48;0.90;;;0.80;;
14961;SDS011;56489;53.166;10.864;2022-10-16T12:09:26;0.77;;;0.77;;
14961;SDS011;56489;53.166;10.864;2022-10-16T12:11:57;2.58;;;1.10;;
14961;SDS011;56489;53.166;10.864;2022-10-16T12:17:24;1.80;;;0.98;;
14961;SDS011;56489;53.166;10.864;2022-10-16T12:20:00;1.65;;;1.00;;
14961;SDS011;56489;53.166;10.864;2022-10-16T12:22:50;0.80;;;0.80;;
14961;SDS011;56489;53.166;10.864;2022-10-16T12:25:30;0.90;;;0.85;;
14961;SDS011;56489;53.166;10.864;2022-10-16T12:30:43;2.05;;;0.90;;
14961;SDS011;56489;53.166;10.864;2022-10-16T12:33:21;1.65;;;0.95;;
14961;SDS011;56489;53.166;10.864;2022-10-16T12:35:53;1.40;;;0.90;;
14961;SDS011;56489;53.166;10.864;2022-10-16T12:38:26;0.93;;;0.80;;
14961;SDS011;56489;53.166;10.864;2022-10-16T12:41:03;1.17;;;1.08;;
14961;SDS011;56489;53.166;10.864;2022-10-16T12:43:40;2.63;;;1.15;;
14961;SDS011;56489;53.166;10.864;2022-10-16T12:48:35;0.93;;;0.93;;
14961;SDS011;56489;53.166;10.864;2022-10-16T12:51:22;2.15;;;0.95;;
14961;SDS011;56489;53.166;10.864;2022-10-16T12:53:57;1.92;;;0.98;;
14961;SDS011;56489;53.166;10.864;2022-10-16T13:07:53;1.35;;;1.17;;
14961;SDS011;56489;53.166;10.864;2022-10-16T13:13:12;1.42;;;1.10;;
14961;SDS011;56489;53.166;10.864;2022-10-16T13:15:58;3.38;;;1.23;;
14961;SDS011;56489;53.166;10.864;2022-10-16T13:18:40;1.30;;;1.20;;
14961;SDS011;56489;53.166;10.864;2022-10-16T13:21:45;1.33;;;1.23;;
14961;SDS011;56489;53.166;10.864;2022-10-16T13:27:18;1.85;;;1.25;;
14961;SDS011;56489;53.166;10.864;2022-10-16T13:30:10;1.23;;;1.00;;
14961;SDS011;56489;53.166;10.864;2022-10-16T13:32:43;1.05;;;0.95;;
14961;SDS011;56489;53.166;10.864;2022-10-16T13:35:20;2.42;;;1.40;;
14961;SDS011;56489;53.166;10.864;2022-10-16T13:38:03;3.08;;;1.33;;
14961;SDS011;56489;53.166;10.864;2022-10-16T13:40:51;1.50;;;1.40;;
14961;SDS011;56489;53.166;10.864;2022-10-16T13:43:19;1.13;;;1.02;;
14961;SDS011;56489;53.166;10.864;2022-10-16T13:45:57;3.38;;;1.25;;
14961;SDS011;56489;53.166;10.864;2022-10-16T13:48:25;1.50;;;1.23;;
14961;SDS011;56489;53.166;10.864;2022-10-16T13:50:59;1.60;;;1.50;;
14961;SDS011;56489;53.166;10.864;2022-10-16T13:53:31;1.15;;;1.15;;
14961;SDS011;56489;53.166;10.864;2022-10-16T13:55:59;1.50;;;1.30;;
14961;SDS011;56489;53.166;10.864;2022-10-16T13:58:28;2.50;;;1.25;;
14961;SDS011;56489;53.166;10.864;2022-10-16T14:01:00;1.40;;;1.30;;
14961;SDS011;56489;53.166;10.864;2022-10-16T14:03:29;1.38;;;1.27;;
14961;SDS011;56489;53.166;10.864;2022-10-16T14:05:58;1.58;;;1.20;;
14961;SDS011;56489;53.166;10.864;2022-10-16T14:08:28;1.25;;;1.20;;
14961;SDS011;56489;53.166;10.864;2022-10-16T14:10:57;1.55;;;1.25;;
14961;SDS011;56489;53.166;10.864;2022-10-16T14:13:35;1.35;;;1.25;;
14961;SDS011;56489;53.166;10.864;2022-10-16T14:16:11;1.30;;;1.17;;
14961;SDS011;56489;53.166;10.864;2022-10-16T14:18:45;1.40;;;1.30;;
14961;SDS011;56489;53.166;10.864;2022-10-16T14:21:20;1.58;;;1.30;;
14961;SDS011;56489;53.166;10.864;2022-10-16T14:23:47;2.20;;;1.55;;
14961;SDS011;56489;53.166;10.864;2022-10-16T14:26:14;1.50;;;1.40;;
14961;SDS011;56489;53.166;10.864;2022-10-16T14:28:44;1.60;;;1.50;;
14961;SDS011;56489;53.166;10.864;2022-10-16T14:33:53;1.88;;;1.17;;
14961;SDS011;56489;53.166;10.864;2022-10-16T14:36:20;1.20;;;1.10;;
14961;SDS011;56489;53.166;10.864;2022-10-16T14:39:04;1.20;;;1.10;;
14961;SDS011;56489;53.166;10.864;2022-10-16T14:41:46;1.35;;;1.20;;
14961;SDS011;56489;53.166;10.864;2022-10-16T14:44:15;1.23;;;1.13;;
14961;SDS011;56489;53.166;10.864;2022-10-16T14:46:44;1.10;;;1.10;;
14961;SDS011;56489;53.166;10.864;2022-10-16T14:51:46;1.40;;;1.30;;
14961;SDS011;56489;53.166;10.864;2022-10-16T14:54:14;2.97;;;1.20;;
14961;SDS011;56489;53.166;10.864;2022-10-16T14:59:22;1.40;;;1.30;;
14961;SDS011;56489;53.166;10.864;2022-10-16T15:01:58;1.88;;;1.30;;
14961;SDS011;56489;53.166;10.864;2022-10-16T15:04:26;2.85;;;1.50;;
14961;SDS011;56489;53.166;10.864;2022-10-16T15:06:53;1.38;;;1.27;;
14961;SDS011;56489;53.166;10.864;2022-10-16T15:09:20;2.20;;;1.48;;
14961;SDS011;56489;53.166;10.864;2022-10-16T15:11:47;1.35;;;1.25;;
14961;SDS011;56489;53.166;10.864;2022-10-16T15:14:13;1.60;;;1.50;;
14961;SDS011;56489;53.166;10.864;2022-10-16T15:16:45;1.25;;;1.15;;
14961;SDS011;56489;53.166;10.864;2022-10-16T15:19:12;1.50;;;1.40;;
14961;SDS011;56489;53.166;10.864;2022-10-16T15:21:39;1.50;;;1.40;;
14961;SDS011;56489;53.166;10.864;2022-10-16T15:24:08;2.53;;;1.73;;
14961;SDS011;56489;53.166;10.864;2022-10-16T15:26:44;1.83;;;1.20;;
14961;SDS011;56489;53.166;10.864;2022-10-16T15:29:12;3.83;;;1.85;;
14961;SDS011;56489;53.166;10.864;2022-10-16T15:31:39;2.50;;;1.38;;
14961;SDS011;56489;53.166;10.864;2022-10-16T15:34:08;1.33;;;1.23;;
14961;SDS011;56489;53.166;10.864;2022-10-16T15:36:36;3.10;;;1.63;;
14961;SDS011;56489;53.166;10.864;2022-10-16T15:39:26;1.67;;;1.58;;
14961;SDS011;56489;53.166;10.864;2022-10-16T15:41:52;2.25;;;2.10;;
14961;SDS011;56489;53.166;10.864;2022-10-16T15:44:20;2.22;;;2.03;;
14961;SDS011;56489;53.166;10.864;2022-10-16T15:46:49;3.05;;;1.65;;
14961;SDS011;56489;53.166;10.864;2022-10-16T15:49:16;1.83;;;1.50;;
14961;SDS011;56489;53.166;10.864;2022-10-16T15:51:43;1.60;;;1.50;;
14961;SDS011;56489;53.166;10.864;2022-10-16T15:54:12;1.42;;;1.23;;
14961;SDS011;56489;53.166;10.864;2022-10-16T15:56:38;1.75;;;1.50;;
14961;SDS011;56489;53.166;10.864;2022-10-16T15:59:05;3.38;;;1.48;;
14961;SDS011;56489;53.166;10.864;2022-10-16T16:01:33;1.60;;;1.50;;
14961;SDS011;56489;53.166;10.864;2022-10-16T16:04:00;1.67;;;1.50;;
14961;SDS011;56489;53.166;10.864;2022-10-16T16:06:40;1.67;;;1.58;;
14961;SDS011;56489;53.166;10.864;2022-10-16T16:09:11;1.70;;;1.60;;
14961;SDS011;56489;53.166;10.864;2022-10-16T16:11:38;2.22;;;2.10;;
14961;SDS011;56489;53.166;10.864;2022-10-16T16:14:06;1.67;;;1.58;;
14961;SDS011;56489;53.166;10.864;2022-10-16T16:16:33;1.75;;;1.60;;
14961;SDS011;56489;53.166;10.864;2022-10-16T16:19:04;2.35;;;2.15;;
14961;SDS011;56489;53.166;10.864;2022-10-16T16:21:36;2.67;;;2.50;;
14961;SDS011;56489;53.166;10.864;2022-10-16T16:24:03;1.95;;;1.85;;